createdAt,value
2017-07-08T09:41:02.250Z,2668
2017-07-08T09:42:11.327Z,2820
2017-07-08T09:43:20.626Z,2868
2017-07-08T09:44:30.246Z,2744
2017-07-08T09:45:39.533Z,2408
2017-07-08T09:46:48.903Z,2200
2017-07-08T09:47:58.211Z,2152
2017-07-08T09:49:07.195Z,2628
2017-07-08T09:50:16.787Z,2856
2017-07-08T09:51:25.774Z,3284
2017-07-08T09:52:34.439Z,3328
2017-07-08T09:53:44.042Z,3584
2017-07-08T09:54:53.314Z,3068
2017-07-08T09:56:02.589Z,2772
2017-07-08T09:57:11.945Z,2972
2017-07-08T09:58:20.592Z,3008
2017-07-08T09:59:30.202Z,3080
2017-07-08T10:00:38.870Z,3152
2017-07-08T10:01:47.519Z,3316
2017-07-08T10:02:56.507Z,3172
2017-07-08T10:04:05.166Z,2772
2017-07-08T10:05:14.468Z,2428
2017-07-08T10:06:23.124Z,2504
2017-07-08T10:07:32.405Z,2464
2017-07-08T10:08:41.998Z,2384
2017-07-08T10:09:50.981Z,2088
2017-07-08T10:10:59.633Z,1872
2017-07-08T10:12:08.599Z,1792
2017-07-08T10:13:17.907Z,1696
2017-07-08T10:14:27.208Z,1620
2017-07-08T10:15:35.918Z,1588
2017-07-08T10:16:45.518Z,1584
2017-07-08T10:17:55.433Z,1576
2017-07-08T10:19:04.713Z,1556
2017-07-08T10:20:13.365Z,1504
2017-07-08T10:21:22.334Z,1476
2017-07-08T10:22:31.614Z,1420
2017-07-08T10:23:40.898Z,1384
2017-07-08T10:24:49.866Z,1348
2017-07-08T10:25:58.822Z,1320
2017-07-08T10:27:08.105Z,1320
2017-07-08T10:28:17.394Z,1352
2017-07-08T10:29:26.670Z,1408
2017-07-08T10:30:35.641Z,1436
2017-07-08T10:31:44.613Z,1452
2017-07-08T10:32:53.582Z,1440
2017-07-08T10:34:02.232Z,1464
2017-07-08T10:35:11.195Z,1500
2017-07-08T10:36:20.169Z,1476
2017-07-08T10:37:29.128Z,1468
2017-07-08T10:38:38.740Z,1484
2017-07-08T10:39:48.021Z,1484
2017-07-08T10:40:56.668Z,1496
2017-07-08T10:42:05.942Z,1492
2017-07-08T10:43:15.237Z,1480
2017-07-08T10:44:25.139Z,1476
2017-07-08T10:45:33.794Z,1472
2017-07-08T10:46:42.751Z,1440
2017-07-08T10:47:51.404Z,1432
2017-07-08T10:49:00.073Z,1444
2017-07-08T10:50:09.352Z,1440
2017-07-08T10:51:18.000Z,1464
2017-07-08T10:52:26.963Z,1456
2017-07-08T10:53:35.933Z,1444
2017-07-08T10:54:45.540Z,1436
2017-07-08T10:55:54.526Z,1432
2017-07-08T10:57:03.483Z,1436
2017-07-08T10:58:12.134Z,1436
2017-07-08T10:59:20.794Z,1424
2017-07-08T11:00:30.072Z,1396
2017-07-08T11:01:39.040Z,1368
2017-07-08T11:02:48.632Z,1344
2017-07-08T11:03:57.911Z,1332
2017-07-08T11:05:07.217Z,1296
2017-07-08T11:06:15.856Z,1260
2017-07-08T11:07:24.504Z,1220
2017-07-08T11:08:33.465Z,1184
2017-07-08T11:09:42.119Z,1164
2017-07-08T11:10:51.842Z,1128
2017-07-08T11:12:00.811Z,1100
2017-07-08T11:13:09.772Z,1076
2017-07-08T11:14:18.742Z,1044
2017-07-08T11:15:28.325Z,992
2017-07-08T11:16:37.300Z,956
2017-07-08T11:17:46.347Z,940
2017-07-08T11:18:55.313Z,940
2017-07-08T11:20:04.591Z,932
2017-07-08T11:21:13.548Z,944
2017-07-08T11:22:22.506Z,956
2017-07-08T11:23:31.162Z,964
2017-07-08T11:24:40.129Z,968
2017-07-08T11:25:49.442Z,980
2017-07-08T11:26:58.789Z,984
2017-07-08T11:28:08.066Z,988
2017-07-08T11:29:17.370Z,996
2017-07-08T11:30:26.328Z,988
2017-07-08T11:31:35.675Z,976
2017-07-08T11:32:44.961Z,964
2017-07-08T11:33:53.603Z,940
2017-07-08T11:35:02.888Z,928
2017-07-08T11:36:12.185Z,920
2017-07-08T11:37:21.464Z,920
2017-07-08T11:38:30.769Z,932
2017-07-08T11:39:40.072Z,952
2017-07-08T11:40:49.038Z,964
2017-07-08T11:41:57.680Z,980
2017-07-08T11:43:06.323Z,980
2017-07-08T11:44:15.910Z,988
2017-07-08T11:45:25.202Z,992
2017-07-08T11:46:34.162Z,1008
2017-07-08T11:47:43.440Z,1024
2017-07-08T11:48:53.034Z,1048
2017-07-08T11:50:01.999Z,1068
2017-07-08T11:51:11.584Z,1088
2017-07-08T11:52:20.563Z,1116
2017-07-08T11:53:29.568Z,1144
2017-07-08T11:54:38.225Z,1148
2017-07-08T11:55:46.903Z,1140
2017-07-08T11:56:55.564Z,1168
2017-07-08T11:58:04.210Z,1208
2017-07-08T11:59:12.856Z,1248
2017-07-08T12:00:21.828Z,1308
2017-07-08T12:01:31.117Z,1420
2017-07-08T12:02:39.798Z,1440
2017-07-08T12:03:48.763Z,1396
2017-07-08T12:04:57.737Z,1292
2017-07-08T12:06:07.023Z,1332
2017-07-08T12:07:16.948Z,1372
2017-07-08T12:08:26.228Z,1296
2017-07-08T12:09:35.515Z,1360
2017-07-08T12:10:44.489Z,1396
2017-07-08T12:11:54.074Z,1336
2017-07-08T12:13:03.045Z,1376
2017-07-08T12:14:12.627Z,1388
2017-07-08T12:15:21.595Z,1392
2017-07-08T12:16:30.235Z,1388
2017-07-08T12:17:39.532Z,1316
2017-07-08T12:18:48.838Z,1264
2017-07-08T12:19:58.121Z,1220
2017-07-08T12:21:08.354Z,1248
2017-07-08T12:22:17.936Z,1328
2017-07-08T12:23:27.518Z,1428
2017-07-08T12:24:36.800Z,1476
2017-07-08T12:25:45.442Z,1504
2017-07-08T12:26:54.734Z,1480
2017-07-08T12:28:03.698Z,1444
2017-07-08T12:29:12.986Z,1388
2017-07-08T12:30:22.587Z,1356
2017-07-08T12:31:31.864Z,1288
2017-07-08T12:32:40.830Z,1388
2017-07-08T12:33:49.505Z,1560
2017-07-08T12:34:58.483Z,1708
2017-07-08T12:36:07.464Z,1824
2017-07-08T12:37:16.741Z,1908
2017-07-08T12:38:26.020Z,1924
2017-07-08T12:39:34.994Z,1920
2017-07-08T12:40:43.959Z,1960
2017-07-08T12:41:52.926Z,2032
2017-07-08T12:43:01.885Z,1976
2017-07-08T12:44:10.876Z,2096
2017-07-08T12:45:20.470Z,2176
2017-07-08T12:46:29.439Z,2168
2017-07-08T12:47:38.108Z,2136
2017-07-08T12:48:47.697Z,2088
2017-07-08T12:49:56.991Z,1908
2017-07-08T12:51:05.956Z,1840
2017-07-08T12:52:15.394Z,1760
2017-07-08T12:53:24.369Z,1708
2017-07-08T12:54:33.644Z,1700
2017-07-08T12:55:42.609Z,1780
2017-07-08T12:56:51.618Z,1728
2017-07-08T12:58:00.280Z,1584
2017-07-08T12:59:09.246Z,1500
2017-07-08T13:00:18.215Z,1540
2017-07-08T13:01:27.199Z,1456
2017-07-08T13:02:35.861Z,1432
2017-07-08T13:03:45.762Z,1444
2017-07-08T13:04:54.414Z,1496
2017-07-08T13:06:04.017Z,1456
2017-07-08T13:07:13.602Z,1464
2017-07-08T13:08:23.200Z,1548
2017-07-08T13:09:32.170Z,1484
2017-07-08T13:10:41.135Z,1412
2017-07-08T13:11:49.786Z,1412
2017-07-08T13:12:59.070Z,1500
2017-07-08T13:14:08.349Z,1544
2017-07-08T13:15:17.624Z,1568
2017-07-08T13:16:27.202Z,1596
2017-07-08T13:17:36.169Z,1604
2017-07-08T13:18:44.820Z,1628
2017-07-08T13:19:54.106Z,1548
2017-07-08T13:21:03.077Z,1636
2017-07-08T13:22:12.040Z,1644
2017-07-08T13:23:21.022Z,1716
2017-07-08T13:24:30.609Z,1896
2017-07-08T13:25:39.260Z,1880
2017-07-08T13:26:48.858Z,1776
2017-07-08T13:27:57.511Z,1844
2017-07-08T13:29:06.177Z,1804
2017-07-08T13:30:15.138Z,1680
2017-07-08T13:31:23.794Z,1628
2017-07-08T13:32:32.439Z,1696
2017-07-08T13:33:41.403Z,1764
2017-07-08T13:34:50.365Z,1760
2017-07-08T13:35:59.640Z,1712
2017-07-08T13:37:08.672Z,1456
2017-07-08T13:38:18.042Z,1624
2017-07-08T13:39:27.338Z,1628
2017-07-08T13:40:36.933Z,1628
2017-07-08T13:41:45.898Z,1332
2017-07-08T13:42:54.870Z,1276
2017-07-08T13:44:03.835Z,1412
2017-07-08T13:45:13.128Z,1584
2017-07-08T13:46:22.095Z,1564
2017-07-08T13:47:31.386Z,1448
2017-07-08T13:48:40.040Z,1288
2017-07-08T13:49:49.977Z,1180
2017-07-08T13:50:58.635Z,1188
2017-07-08T13:52:07.921Z,1104
2017-07-08T13:53:17.192Z,1180
2017-07-08T13:54:25.845Z,1224
2017-07-08T13:55:34.815Z,1164
2017-07-08T13:56:44.094Z,1004
2017-07-08T13:57:53.390Z,968
2017-07-08T13:59:02.355Z,912
2017-07-08T14:00:11.348Z,880
2017-07-08T14:01:20.002Z,844
2017-07-08T14:02:28.965Z,828
2017-07-08T14:03:37.943Z,856
2017-07-08T14:04:46.912Z,888
2017-07-08T14:05:55.881Z,760
2017-07-08T14:07:04.838Z,732
2017-07-08T14:08:13.541Z,812
2017-07-08T14:09:22.831Z,712
2017-07-08T14:10:32.110Z,832
2017-07-08T14:11:41.099Z,816
2017-07-08T14:12:50.060Z,824
2017-07-08T14:13:59.036Z,816
2017-07-08T14:15:08.306Z,828
2017-07-08T14:16:17.641Z,868
2017-07-08T14:17:26.337Z,1060
2017-07-08T14:18:35.006Z,1012
2017-07-08T14:19:43.965Z,1008
2017-07-08T14:20:52.935Z,976
2017-07-08T14:22:02.217Z,960
2017-07-08T14:23:10.867Z,884
2017-07-08T14:24:20.158Z,844
2017-07-08T14:25:30.380Z,816
2017-07-08T14:26:39.022Z,944
2017-07-08T14:27:47.983Z,1136
2017-07-08T14:28:57.258Z,1292
2017-07-08T14:30:06.214Z,1216
2017-07-08T14:31:15.520Z,1216
2017-07-08T14:32:24.486Z,1156
2017-07-08T14:33:33.460Z,1060
2017-07-08T14:34:42.168Z,964
2017-07-08T14:35:51.464Z,900
2017-07-08T14:37:01.069Z,840
2017-07-08T14:38:09.706Z,872
2017-07-08T14:39:18.666Z,900
2017-07-08T14:40:27.330Z,972
2017-07-08T14:41:36.340Z,988
2017-07-08T14:42:45.091Z,972
2017-07-08T14:43:53.741Z,796
2017-07-08T14:45:02.707Z,780
2017-07-08T14:46:11.985Z,732
2017-07-08T14:47:21.015Z,724
2017-07-08T14:48:29.653Z,808
2017-07-08T14:49:38.605Z,768
2017-07-08T14:50:47.881Z,776
2017-07-08T14:51:57.163Z,760
2017-07-08T14:53:05.808Z,768
2017-07-08T14:54:15.098Z,800
2017-07-08T14:55:24.064Z,876
2017-07-08T14:56:33.339Z,732
2017-07-08T14:57:42.328Z,920
2017-07-08T14:58:52.577Z,1136
2017-07-08T15:00:03.140Z,1128
2017-07-08T15:01:14.589Z,1072
2017-07-08T15:02:23.894Z,896
2017-07-08T15:03:33.164Z,792
2017-07-08T15:04:42.452Z,772
2017-07-08T15:05:51.416Z,780
2017-07-08T15:07:00.388Z,832
2017-07-08T15:08:09.666Z,836
2017-07-08T15:09:18.633Z,984
2017-07-08T15:10:28.232Z,1104
2017-07-08T15:11:37.197Z,1352
2017-07-08T15:12:46.160Z,1520
2017-07-08T15:13:55.447Z,1472
2017-07-08T15:15:04.103Z,1308
2017-07-08T15:16:13.085Z,1092
2017-07-08T15:17:22.081Z,932
2017-07-08T15:18:31.043Z,892
2017-07-08T15:19:40.018Z,820
2017-07-08T15:20:49.130Z,796
2017-07-08T15:21:58.126Z,776
2017-07-08T15:23:08.021Z,788
2017-07-08T15:24:17.301Z,804
2017-07-08T15:25:25.955Z,1012
2017-07-08T15:26:35.553Z,1076
2017-07-08T15:27:44.521Z,1108
2017-07-08T15:28:53.173Z,860
2017-07-08T15:30:02.447Z,844
2017-07-08T15:31:11.145Z,632
2017-07-08T15:32:20.421Z,600
2017-07-08T15:33:29.719Z,588
2017-07-08T15:34:38.711Z,592
2017-07-08T15:35:47.366Z,548
2017-07-08T15:36:56.038Z,528
2017-07-08T15:38:05.147Z,624
2017-07-08T15:39:13.822Z,736
2017-07-08T15:40:22.464Z,804
2017-07-08T15:41:31.429Z,828
2017-07-08T15:42:40.089Z,784
2017-07-08T15:43:49.423Z,720
2017-07-08T15:44:59.020Z,684
2017-07-08T15:46:07.970Z,672
2017-07-08T15:47:16.962Z,740
2017-07-08T15:48:25.948Z,800
2017-07-08T15:49:35.231Z,936
2017-07-08T15:50:44.207Z,916
2017-07-08T15:51:52.850Z,928
2017-07-08T15:53:02.139Z,1020
2017-07-08T15:54:11.155Z,1068
2017-07-08T15:55:20.116Z,956
2017-07-08T15:56:29.423Z,836
2017-07-08T15:57:38.684Z,764
2017-07-08T15:58:48.276Z,720
2017-07-08T15:59:57.869Z,688
2017-07-08T16:01:07.041Z,688
2017-07-08T16:02:15.682Z,692
2017-07-08T16:03:24.326Z,684
2017-07-08T16:04:33.290Z,700
2017-07-08T16:05:42.937Z,704
2017-07-08T16:06:52.692Z,716
2017-07-08T16:08:02.302Z,620
2017-07-08T16:09:11.349Z,712
2017-07-08T16:10:20.627Z,736
2017-07-08T16:11:30.532Z,752
2017-07-08T16:12:40.136Z,736
2017-07-08T16:13:48.790Z,736
2017-07-08T16:14:57.441Z,724
2017-07-08T16:16:06.403Z,648
2017-07-08T16:17:15.377Z,632
2017-07-08T16:18:24.669Z,724
2017-07-08T16:19:33.315Z,868
2017-07-08T16:20:41.955Z,896
2017-07-08T16:21:51.231Z,876
2017-07-08T16:23:00.843Z,820
2017-07-08T16:24:10.594Z,788
2017-07-08T16:25:19.558Z,772
2017-07-08T16:26:29.151Z,736
2017-07-08T16:27:38.457Z,708
2017-07-08T16:28:47.440Z,676
2017-07-08T16:29:56.098Z,680
2017-07-08T16:31:05.050Z,688
2017-07-08T16:32:14.350Z,684
2017-07-08T16:33:23.625Z,668
2017-07-08T16:34:33.207Z,660
2017-07-08T16:35:41.869Z,676
2017-07-08T16:36:51.140Z,692
2017-07-08T16:38:00.415Z,716
2017-07-08T16:39:09.064Z,732
2017-07-08T16:40:18.354Z,760
2017-07-08T16:41:27.303Z,756
2017-07-08T16:42:36.276Z,724
2017-07-08T16:43:45.232Z,696
2017-07-08T16:44:54.220Z,684
2017-07-08T16:46:03.188Z,652
2017-07-08T16:47:12.472Z,628
2017-07-08T16:48:22.079Z,620
2017-07-08T16:49:31.049Z,572
2017-07-08T16:50:40.639Z,560
2017-07-08T16:51:49.602Z,536
2017-07-08T16:52:59.192Z,492
2017-07-08T16:54:08.157Z,444
2017-07-08T16:55:16.803Z,452
2017-07-08T16:56:26.434Z,464
2017-07-08T16:57:35.086Z,452
2017-07-08T16:58:44.368Z,436
2017-07-08T16:59:53.333Z,404
2017-07-08T17:01:01.983Z,380
2017-07-08T17:02:11.578Z,356
2017-07-08T17:03:20.545Z,336
2017-07-08T17:04:29.815Z,352
2017-07-08T17:05:39.096Z,388
2017-07-08T17:06:48.068Z,384
2017-07-08T17:07:56.716Z,380
2017-07-08T17:09:05.986Z,380
2017-07-08T17:10:14.630Z,356
2017-07-08T17:11:23.592Z,328
2017-07-08T17:12:32.241Z,328
2017-07-08T17:13:41.214Z,300
2017-07-08T17:14:50.185Z,300
2017-07-08T17:15:59.146Z,328
2017-07-08T17:17:08.417Z,396
2017-07-08T17:18:17.762Z,444
2017-07-08T17:19:27.036Z,428
2017-07-08T17:20:35.715Z,400
2017-07-08T17:21:45.005Z,412
2017-07-08T17:22:53.666Z,396
2017-07-08T17:24:02.642Z,336
2017-07-08T17:25:11.599Z,280
2017-07-08T17:26:20.571Z,244
2017-07-08T17:27:29.857Z,228
2017-07-08T17:28:39.122Z,212
2017-07-08T17:29:48.091Z,196
2017-07-08T17:30:57.049Z,176
2017-07-08T17:32:06.651Z,148
2017-07-08T17:33:15.965Z,132
2017-07-08T17:34:25.278Z,132
2017-07-08T17:35:34.557Z,140
2017-07-08T17:36:43.536Z,164
2017-07-08T17:37:52.505Z,216
2017-07-08T17:39:01.791Z,256
2017-07-08T17:40:10.761Z,264
2017-07-08T17:41:20.030Z,252
2017-07-08T17:42:28.998Z,236
2017-07-08T17:43:37.652Z,220
2017-07-08T17:44:46.636Z,208
2017-07-08T17:45:55.597Z,200
2017-07-08T17:47:04.254Z,192
2017-07-08T17:48:12.904Z,188
2017-07-08T17:49:22.811Z,180
2017-07-08T17:50:31.788Z,168
2017-07-08T17:51:40.813Z,156
2017-07-08T17:52:49.792Z,144
2017-07-08T17:53:59.080Z,104
2017-07-08T17:55:08.045Z,160
2017-07-08T17:56:16.708Z,160
2017-07-08T17:57:25.681Z,168
2017-07-08T17:58:34.322Z,180
2017-07-08T17:59:43.909Z,180
2017-07-08T18:00:53.200Z,172
2017-07-08T18:02:02.164Z,164
2017-07-08T18:03:11.121Z,180
2017-07-08T18:04:20.085Z,200
2017-07-08T18:05:29.043Z,220
2017-07-08T18:06:38.038Z,240
2017-07-08T18:07:47.200Z,256
2017-07-08T18:08:56.486Z,272
2017-07-08T18:10:05.822Z,280
2017-07-08T18:11:14.781Z,300
2017-07-08T18:12:23.755Z,324
2017-07-08T18:13:32.730Z,356
2017-07-08T18:14:41.692Z,352
2017-07-08T18:15:51.029Z,360
2017-07-08T18:16:59.988Z,384
2017-07-08T18:18:08.969Z,408
2017-07-08T18:19:17.629Z,420
2017-07-08T18:20:26.667Z,412
2017-07-08T18:21:36.572Z,404
2017-07-08T18:22:45.858Z,396
2017-07-08T18:23:55.144Z,368
2017-07-08T18:25:04.126Z,352
2017-07-08T18:26:13.099Z,352
2017-07-08T18:27:22.706Z,368
2017-07-08T18:28:31.359Z,372
2017-07-08T18:29:40.632Z,368
2017-07-08T18:30:49.597Z,344
2017-07-08T18:31:58.903Z,340
2017-07-08T18:33:08.186Z,336
2017-07-08T18:34:17.173Z,316
2017-07-08T18:35:26.143Z,288
2017-07-08T18:36:34.790Z,260
2017-07-08T18:37:43.768Z,252
2017-07-08T18:38:53.382Z,244
2017-07-08T18:40:02.685Z,240
2017-07-08T18:41:11.663Z,240
2017-07-08T18:42:21.273Z,248
2017-07-08T18:43:30.550Z,252
2017-07-08T18:44:39.504Z,256
2017-07-08T18:45:48.461Z,264
2017-07-08T18:46:57.436Z,256
2017-07-08T18:48:06.453Z,240
2017-07-08T18:49:15.109Z,228
2017-07-08T18:50:24.422Z,216
2017-07-08T18:51:33.692Z,204
2017-07-08T18:52:43.296Z,200
2017-07-08T18:53:51.957Z,212
2017-07-08T18:55:00.930Z,224
2017-07-08T18:56:10.844Z,232
2017-07-08T18:57:20.142Z,228
2017-07-08T18:58:30.048Z,212
2017-07-08T18:59:38.698Z,216
2017-07-08T19:00:48.307Z,220
2017-07-08T19:01:57.577Z,224
2017-07-08T19:03:07.172Z,228
2017-07-08T19:04:16.469Z,228
2017-07-08T19:05:25.439Z,212
2017-07-08T19:06:34.731Z,204
2017-07-08T19:07:43.709Z,188
2017-07-08T19:08:53.614Z,172
2017-07-08T19:10:02.890Z,160
2017-07-08T19:11:11.849Z,160
2017-07-08T19:12:21.116Z,156
2017-07-08T19:13:30.407Z,144
2017-07-08T19:14:40.003Z,132
2017-07-08T19:15:48.984Z,124
2017-07-08T19:16:57.635Z,120
2017-07-08T19:18:06.592Z,116
2017-07-08T19:19:15.878Z,108
2017-07-08T19:20:25.142Z,104
2017-07-08T19:21:34.094Z,100
2017-07-08T19:22:43.379Z,96
2017-07-08T19:23:52.334Z,88
2017-07-08T19:25:01.621Z,84
2017-07-08T19:26:10.896Z,84
2017-07-08T19:27:19.878Z,80
2017-07-08T19:28:28.846Z,76
2017-07-08T19:29:38.141Z,72
2017-07-08T19:30:47.103Z,68
2017-07-08T19:31:56.695Z,68
2017-07-08T19:33:05.660Z,60
2017-07-08T19:34:14.315Z,56
2017-07-08T19:35:23.905Z,52
2017-07-08T19:36:32.923Z,48
2017-07-08T19:37:42.523Z,48
2017-07-08T19:38:51.172Z,44
2017-07-08T19:40:00.783Z,40
2017-07-08T19:41:09.464Z,36
2017-07-08T19:42:18.112Z,36
2017-07-08T19:43:27.388Z,32
2017-07-08T19:44:36.351Z,32
2017-07-08T19:45:45.008Z,28
2017-07-08T19:46:53.978Z,24
2017-07-08T19:48:03.574Z,24
2017-07-08T19:49:12.534Z,20
2017-07-08T19:50:22.141Z,16
2017-07-08T19:51:31.733Z,16
2017-07-08T19:52:41.036Z,16
2017-07-08T19:53:50.011Z,12
2017-07-08T19:54:59.003Z,12
2017-07-08T19:56:08.276Z,8
2017-07-08T19:57:17.273Z,8
2017-07-08T19:58:26.559Z,8
2017-07-08T19:59:36.498Z,8
2017-07-08T20:00:45.155Z,4
2017-07-08T20:01:54.132Z,8
2017-07-08T20:03:03.416Z,4
2017-07-08T20:04:12.389Z,4
2017-07-08T20:05:21.030Z,4
2017-07-08T20:06:30.612Z,0
2017-07-08T20:07:40.249Z,4
2017-07-08T20:08:49.239Z,4
2017-07-08T20:09:58.824Z,4
2017-07-08T20:11:07.784Z,0
2017-07-08T20:12:16.778Z,0
2017-07-08T20:13:26.071Z,0
2017-07-08T20:14:35.354Z,0
2017-07-08T20:15:44.014Z,0
2017-07-08T20:16:52.977Z,0
2017-07-08T20:18:01.630Z,0
2017-07-08T20:19:10.639Z,0
2017-07-08T20:20:19.921Z,0
2017-07-08T20:21:28.879Z,0
2017-07-08T20:22:38.146Z,0
2017-07-08T20:23:47.421Z,0
2017-07-08T20:24:56.372Z,0
2017-07-08T20:26:05.964Z,0
2017-07-08T20:27:14.932Z,0
2017-07-08T20:28:24.530Z,0
2017-07-08T20:29:33.811Z,0
2017-07-08T20:30:42.770Z,0
2017-07-08T20:31:52.039Z,0
2017-07-08T20:33:01.635Z,0
2017-07-08T20:34:10.282Z,0
2017-07-08T20:35:19.324Z,0
2017-07-08T20:36:28.602Z,0
2017-07-08T20:37:37.565Z,0
2017-07-08T20:38:46.240Z,0
2017-07-08T20:39:55.217Z,0
2017-07-08T20:41:04.212Z,0
2017-07-08T20:42:13.805Z,0
2017-07-08T20:43:22.773Z,0
2017-07-08T20:44:32.382Z,0
2017-07-08T20:45:41.346Z,0
2017-07-08T20:46:50.325Z,0
2017-07-08T20:47:58.974Z,0
2017-07-08T20:49:07.935Z,0
2017-07-08T20:50:17.208Z,0
2017-07-08T20:51:26.810Z,0
2017-07-08T20:52:35.453Z,0
2017-07-08T20:53:44.511Z,0
2017-07-08T20:54:53.524Z,0
2017-07-08T20:56:03.114Z,0
2017-07-08T20:57:12.066Z,0
2017-07-08T20:58:21.341Z,0
2017-07-08T20:59:30.322Z,0
2017-07-08T21:00:38.974Z,0
2017-07-08T21:01:47.626Z,0
2017-07-08T21:02:57.531Z,0
2017-07-08T21:04:06.187Z,0
2017-07-08T21:05:15.470Z,0
2017-07-08T21:06:24.127Z,0
2017-07-08T21:07:33.429Z,0
2017-07-08T21:08:42.074Z,0
2017-07-08T21:09:51.351Z,0
2017-07-08T21:11:01.041Z,0
2017-07-08T21:12:10.323Z,0
2017-07-08T21:13:18.973Z,0
2017-07-08T21:14:28.300Z,0
2017-07-08T21:15:37.378Z,0
2017-07-08T21:16:46.667Z,0
2017-07-08T21:17:56.697Z,0
2017-07-08T21:19:05.394Z,0
2017-07-08T21:20:14.471Z,0
2017-07-08T21:21:24.377Z,0
2017-07-08T21:22:33.367Z,0
2017-07-08T21:23:42.074Z,0
2017-07-08T21:24:51.098Z,0
2017-07-08T21:26:00.059Z,0
2017-07-08T21:27:09.655Z,0
2017-07-08T21:28:18.950Z,0
2017-07-08T21:29:27.921Z,0
2017-07-08T21:30:36.879Z,4
2017-07-08T21:31:45.854Z,0
2017-07-08T21:32:54.880Z,0
2017-07-08T21:34:04.162Z,0
2017-07-08T21:35:13.435Z,0
2017-07-08T21:36:22.425Z,0
2017-07-08T21:37:31.714Z,0
2017-07-08T21:38:40.986Z,0
2017-07-08T21:39:50.588Z,0
2017-07-08T21:40:59.871Z,0
2017-07-08T21:42:08.832Z,0
2017-07-08T21:43:17.790Z,0
2017-07-08T21:44:27.067Z,0
2017-07-08T21:45:36.027Z,0
2017-07-08T21:46:44.704Z,0
2017-07-08T21:47:53.373Z,0
2017-07-08T21:49:02.977Z,0
2017-07-08T21:50:11.973Z,0
2017-07-08T21:51:21.250Z,0
2017-07-08T21:52:30.243Z,0
2017-07-08T21:53:39.845Z,0
2017-07-08T21:54:48.815Z,0
2017-07-08T21:55:57.775Z,0
2017-07-08T21:57:06.739Z,0
2017-07-08T21:58:15.713Z,0
2017-07-08T21:59:25.005Z,0
2017-07-08T22:00:33.648Z,0
2017-07-08T22:01:42.297Z,0
2017-07-08T22:02:51.576Z,0
2017-07-08T22:04:00.558Z,0
2017-07-08T22:05:09.835Z,0
2017-07-08T22:06:19.414Z,0
2017-07-08T22:07:28.712Z,0
2017-07-08T22:08:37.414Z,0
2017-07-08T22:09:46.075Z,0
2017-07-08T22:10:55.352Z,0
2017-07-08T22:12:04.013Z,0
2017-07-08T22:13:12.691Z,0
2017-07-08T22:14:21.975Z,0
2017-07-08T22:15:30.949Z,0
2017-07-08T22:16:39.905Z,0
2017-07-08T22:17:49.184Z,0
2017-07-08T22:18:58.149Z,0
2017-07-08T22:20:06.817Z,0
2017-07-08T22:21:16.082Z,0
2017-07-08T22:22:25.662Z,0
2017-07-08T22:23:35.251Z,0
2017-07-08T22:24:44.198Z,0
2017-07-08T22:25:53.785Z,0
2017-07-08T22:27:02.745Z,0
2017-07-08T22:28:11.718Z,0
2017-07-08T22:29:20.689Z,0
2017-07-08T22:30:30.296Z,0
2017-07-08T22:31:39.569Z,0
2017-07-08T22:32:49.184Z,0
2017-07-08T22:33:57.891Z,0
2017-07-08T22:35:07.487Z,0
2017-07-08T22:36:16.131Z,0
2017-07-08T22:37:24.782Z,0
2017-07-08T22:38:33.762Z,0
2017-07-08T22:39:42.716Z,0
2017-07-08T22:40:52.299Z,0
2017-07-08T22:42:01.882Z,0
2017-07-08T22:43:10.840Z,0
2017-07-08T22:44:20.114Z,0
2017-07-08T22:45:29.378Z,0
2017-07-08T22:46:38.342Z,0
2017-07-08T22:50:19.670Z,0
2017-07-08T22:51:28.950Z,0
2017-07-08T22:52:37.914Z,0
2017-07-08T22:53:47.201Z,0
2017-07-08T22:54:56.172Z,0
2017-07-08T22:56:05.132Z,0
2017-07-08T22:57:14.099Z,0
2017-07-08T22:58:23.375Z,0
2017-07-08T22:59:32.334Z,0
2017-07-08T23:00:41.299Z,0
2017-07-08T23:01:50.260Z,0
2017-07-08T23:02:59.538Z,0
2017-07-08T23:04:09.135Z,0
2017-07-08T23:05:18.446Z,0
2017-07-08T23:06:28.050Z,0
2017-07-08T23:07:37.147Z,0
2017-07-08T23:08:46.112Z,0
2017-07-08T23:09:55.390Z,0
2017-07-08T23:11:04.028Z,0
2017-07-08T23:12:12.681Z,0
2017-07-08T23:13:21.643Z,0
2017-07-08T23:14:30.909Z,0
2017-07-08T23:15:39.867Z,0
2017-07-08T23:16:48.839Z,0
2017-07-08T23:17:58.429Z,0
2017-07-08T23:19:08.006Z,0
2017-07-08T23:20:16.655Z,0
2017-07-08T23:21:25.931Z,0
2017-07-08T23:22:34.586Z,0
2017-07-08T23:23:43.864Z,0
2017-07-08T23:24:52.829Z,0
2017-07-08T23:26:02.416Z,0
2017-07-08T23:27:11.370Z,0
2017-07-08T23:28:20.640Z,0
2017-07-08T23:29:29.600Z,0
2017-07-08T23:30:38.876Z,0
2017-07-08T23:31:47.839Z,0
2017-07-08T23:32:56.801Z,0
2017-07-08T23:34:06.422Z,0
2017-07-08T23:35:15.372Z,0
2017-07-08T23:36:24.646Z,0
2017-07-08T23:37:34.533Z,0
2017-07-08T23:38:44.135Z,0
2017-07-08T23:39:53.402Z,0
2017-07-08T23:41:02.053Z,0
2017-07-08T23:42:11.325Z,0
2017-07-08T23:43:20.619Z,0
2017-07-08T23:44:29.572Z,0
2017-07-08T23:45:38.861Z,0
2017-07-08T23:46:47.836Z,0
2017-07-08T23:47:56.803Z,0
2017-07-08T23:49:06.118Z,0
2017-07-08T23:50:15.400Z,0
2017-07-08T23:51:24.066Z,0
2017-07-08T23:52:32.725Z,0
2017-07-08T23:53:41.383Z,0
2017-07-08T23:54:50.351Z,0
2017-07-08T23:55:59.315Z,0
2017-07-08T23:57:07.977Z,0
2017-07-08T23:58:16.636Z,0
2017-07-08T23:59:25.615Z,0
